createdAt,value
2018-06-03T00:00:43.056Z,932.93
2018-06-03T00:01:42.969Z,932.94
2018-06-03T00:02:42.948Z,932.92
2018-06-03T00:03:42.933Z,932.96
2018-06-03T00:04:42.832Z,932.96
2018-06-03T00:05:42.816Z,932.98
2018-06-03T00:06:42.745Z,932.98
2018-06-03T00:07:42.703Z,933.00
2018-06-03T00:08:42.692Z,932.99
2018-06-03T00:09:42.684Z,932.97
2018-06-03T00:10:42.591Z,933.02
2018-06-03T00:11:42.527Z,932.99
2018-06-03T00:12:42.522Z,932.99
2018-06-03T00:13:42.451Z,933.02
2018-06-03T00:14:42.393Z,932.99
2018-06-03T00:15:42.359Z,933.02
2018-06-03T00:16:42.311Z,933.00
2018-06-03T00:17:42.286Z,933.00
2018-06-03T00:18:42.229Z,933.00
2018-06-03T00:19:42.198Z,932.99
2018-06-03T00:20:42.132Z,933.00
2018-06-03T00:21:42.107Z,933.02
2018-06-03T00:22:42.070Z,933.04
2018-06-03T00:23:42.007Z,933.03
2018-06-03T00:24:41.958Z,933.03
2018-06-03T00:25:41.935Z,933.03
2018-06-03T00:26:41.901Z,933.00
2018-06-03T00:27:41.845Z,933.02
2018-06-03T00:28:41.773Z,932.97
2018-06-03T00:29:41.742Z,932.99
2018-06-03T00:30:41.709Z,932.92
2018-06-03T00:31:41.665Z,932.96
2018-06-03T00:32:41.611Z,933.04
2018-06-03T00:33:41.552Z,933.05
2018-06-03T00:34:41.538Z,933.08
2018-06-03T00:35:41.461Z,933.07
2018-06-03T00:36:41.440Z,933.09
2018-06-03T00:37:41.380Z,933.15
2018-06-03T00:38:41.371Z,933.22
2018-06-03T00:39:41.282Z,933.23
2018-06-03T00:40:41.249Z,933.27
2018-06-03T00:41:41.206Z,933.33
2018-06-03T00:42:41.177Z,933.30
2018-06-03T00:43:41.153Z,933.32
2018-06-03T00:44:41.089Z,933.34
2018-06-03T00:45:41.046Z,933.32
2018-06-03T00:46:41.005Z,933.30
2018-06-03T00:47:40.937Z,933.30
2018-06-03T00:48:40.900Z,933.33
2018-06-03T00:49:40.860Z,933.30
2018-06-03T00:50:40.824Z,933.34
2018-06-03T00:51:40.762Z,933.31
2018-06-03T00:52:40.726Z,933.36
2018-06-03T00:53:40.698Z,933.36
2018-06-03T00:54:40.640Z,933.36
2018-06-03T00:55:40.605Z,933.35
2018-06-03T00:56:40.545Z,933.36
2018-06-03T00:57:40.498Z,933.30
2018-06-03T00:58:40.457Z,933.33
2018-06-03T00:59:40.396Z,933.31
2018-06-03T01:00:40.381Z,933.34
2018-06-03T01:01:40.310Z,933.34
2018-06-03T01:02:40.278Z,933.33
2018-06-03T01:03:40.784Z,933.31
2018-06-03T01:04:40.216Z,933.32
2018-06-03T01:05:40.127Z,933.32
2018-06-03T01:06:40.111Z,933.39
2018-06-03T01:07:40.088Z,933.40
2018-06-03T01:08:40.022Z,933.37
2018-06-03T01:09:39.996Z,933.37
2018-06-03T01:10:39.909Z,933.39
2018-06-03T01:11:39.863Z,933.39
2018-06-03T01:12:39.832Z,933.40
2018-06-03T01:13:39.801Z,933.45
2018-06-03T01:14:39.743Z,933.45
2018-06-03T01:15:39.686Z,933.42
2018-06-03T01:16:39.655Z,933.43
2018-06-03T01:17:39.632Z,933.47
2018-06-03T01:18:39.564Z,933.50
2018-06-03T01:19:39.523Z,933.48
2018-06-03T01:20:39.470Z,933.51
2018-06-03T01:21:39.431Z,933.47
2018-06-03T01:22:39.418Z,933.48
2018-06-03T01:23:39.367Z,933.47
2018-06-03T01:24:39.299Z,933.53
2018-06-03T01:25:39.273Z,933.53
2018-06-03T01:26:39.219Z,933.53
2018-06-03T01:27:39.190Z,933.53
2018-06-03T01:28:39.130Z,933.50
2018-06-03T01:29:39.078Z,933.50
2018-06-03T01:30:39.040Z,933.52
2018-06-03T01:31:39.010Z,933.56
2018-06-03T01:32:38.940Z,933.53
2018-06-03T01:33:38.906Z,933.57
2018-06-03T01:34:38.871Z,933.55
2018-06-03T01:35:38.805Z,933.58
2018-06-03T01:36:38.795Z,933.56
2018-06-03T01:37:38.751Z,933.55
2018-06-03T01:38:38.685Z,933.55
2018-06-03T01:39:38.655Z,933.55
2018-06-03T01:40:38.608Z,933.53
2018-06-03T01:41:38.557Z,933.54
2018-06-03T01:42:38.524Z,933.51
2018-06-03T01:43:38.443Z,933.54
2018-06-03T01:44:38.404Z,933.59
2018-06-03T01:45:38.353Z,933.59
2018-06-03T01:46:38.331Z,933.55
2018-06-03T01:47:38.277Z,933.61
2018-06-03T01:48:38.233Z,933.60
2018-06-03T01:49:38.204Z,933.60
2018-06-03T01:50:38.134Z,933.58
2018-06-03T01:51:38.087Z,933.64
2018-06-03T01:52:38.608Z,933.58
2018-06-03T01:53:38.011Z,933.62
2018-06-03T01:54:37.976Z,933.60
2018-06-03T01:55:37.935Z,933.65
2018-06-03T01:56:37.895Z,933.60
2018-06-03T01:57:37.834Z,933.63
2018-06-03T01:58:37.798Z,933.65
2018-06-03T01:59:37.770Z,933.66
2018-06-03T02:00:37.725Z,933.66
2018-06-03T02:01:37.688Z,933.73
2018-06-03T02:02:37.598Z,933.67
2018-06-03T02:03:37.555Z,933.75
2018-06-03T02:04:37.527Z,933.69
2018-06-03T02:05:37.481Z,933.70
2018-06-03T02:06:37.466Z,933.70
2018-06-03T02:07:37.402Z,933.71
2018-06-03T02:08:37.340Z,933.69
2018-06-03T02:09:37.313Z,933.64
2018-06-03T02:10:37.269Z,933.59
2018-06-03T02:11:37.229Z,933.62
2018-06-03T02:12:37.169Z,933.61
2018-06-03T02:13:37.124Z,933.56
2018-06-03T02:14:37.089Z,933.56
2018-06-03T02:15:37.061Z,933.61
2018-06-03T02:16:36.993Z,933.60
2018-06-03T02:17:36.947Z,933.65
2018-06-03T02:18:36.901Z,933.58
2018-06-03T02:19:36.881Z,933.60
2018-06-03T02:20:36.828Z,933.62
2018-06-03T02:21:36.779Z,933.62
2018-06-03T02:22:36.721Z,933.62
2018-06-03T02:23:36.691Z,933.66
2018-06-03T02:24:36.648Z,933.60
2018-06-03T02:25:36.604Z,933.58
2018-06-03T02:26:36.565Z,933.61
2018-06-03T02:27:36.514Z,933.61
2018-06-03T02:28:36.456Z,933.62
2018-06-03T02:29:36.419Z,933.63
2018-06-03T02:30:36.362Z,933.65
2018-06-03T02:31:36.339Z,933.65
2018-06-03T02:32:36.295Z,933.68
2018-06-03T02:33:36.241Z,933.62
2018-06-03T02:34:36.228Z,933.56
2018-06-03T02:35:36.156Z,933.60
2018-06-03T02:36:36.100Z,933.62
2018-06-03T02:37:36.068Z,933.64
2018-06-03T02:38:36.040Z,933.65
2018-06-03T02:39:36.004Z,933.60
2018-06-03T02:40:35.923Z,933.56
2018-06-03T02:41:35.872Z,933.54
2018-06-03T02:42:35.841Z,933.53
2018-06-03T02:43:35.803Z,933.53
2018-06-03T02:44:35.730Z,933.59
2018-06-03T02:45:35.713Z,933.64
2018-06-03T02:46:35.661Z,933.68
2018-06-03T02:47:35.611Z,933.68
2018-06-03T02:48:35.594Z,933.66
2018-06-03T02:49:35.539Z,933.62
2018-06-03T02:50:35.520Z,933.63
2018-06-03T02:51:35.424Z,933.62
2018-06-03T02:52:35.386Z,933.61
2018-06-03T02:53:35.374Z,933.63
2018-06-03T02:54:35.311Z,933.67
2018-06-03T02:55:35.317Z,933.73
2018-06-03T02:56:35.215Z,933.76
2018-06-03T02:57:35.146Z,933.73
2018-06-03T02:58:35.135Z,933.75
2018-06-03T02:59:35.055Z,933.77
2018-06-03T03:00:35.036Z,933.77
2018-06-03T03:01:35.001Z,933.75
2018-06-03T03:02:34.939Z,933.78
2018-06-03T03:03:34.914Z,933.73
2018-06-03T03:04:34.877Z,933.66
2018-06-03T03:05:34.818Z,933.65
2018-06-03T03:06:34.862Z,933.62
2018-06-03T03:07:34.702Z,933.67
2018-06-03T03:08:34.684Z,933.64
2018-06-03T03:09:34.626Z,933.69
2018-06-03T03:10:34.595Z,933.71
2018-06-03T03:11:34.534Z,933.66
2018-06-03T03:12:34.505Z,933.65
2018-06-03T03:13:34.472Z,933.67
2018-06-03T03:14:34.400Z,933.69
2018-06-03T03:15:34.364Z,933.71
2018-06-03T03:16:34.311Z,933.71
2018-06-03T03:17:34.267Z,933.76
2018-06-03T03:18:34.222Z,933.76
2018-06-03T03:19:34.192Z,933.77
2018-06-03T03:20:34.119Z,933.77
2018-06-03T03:21:34.086Z,933.72
2018-06-03T03:22:34.068Z,933.71
2018-06-03T03:23:33.999Z,933.72
2018-06-03T03:24:33.954Z,933.78
2018-06-03T03:25:33.913Z,933.82
2018-06-03T03:26:33.870Z,933.76
2018-06-03T03:27:33.822Z,933.80
2018-06-03T03:28:33.792Z,933.79
2018-06-03T03:29:33.712Z,933.78
2018-06-03T03:30:33.682Z,933.80
2018-06-03T03:31:33.634Z,933.78
2018-06-03T03:32:33.581Z,933.82
2018-06-03T03:33:33.577Z,933.91
2018-06-03T03:34:33.518Z,933.89
2018-06-03T03:35:33.471Z,933.91
2018-06-03T03:36:33.426Z,933.88
2018-06-03T03:37:33.360Z,933.84
2018-06-03T03:38:33.331Z,933.88
2018-06-03T03:39:33.298Z,933.86
2018-06-03T03:40:33.249Z,933.87
2018-06-03T03:41:33.200Z,933.88
2018-06-03T03:42:33.143Z,933.94
2018-06-03T03:43:33.120Z,933.91
2018-06-03T03:44:33.082Z,933.99
2018-06-03T03:45:33.020Z,933.99
2018-06-03T03:46:33.004Z,933.99
2018-06-03T03:47:32.924Z,934.04
2018-06-03T03:48:32.889Z,934.05
2018-06-03T03:49:32.831Z,934.02
2018-06-03T03:50:32.788Z,934.03
2018-06-03T03:51:32.751Z,934.12
2018-06-03T03:52:32.706Z,934.12
2018-06-03T03:53:32.660Z,934.14
2018-06-03T03:54:32.609Z,934.13
2018-06-03T03:55:32.549Z,934.19
2018-06-03T03:56:32.520Z,934.16
2018-06-03T03:57:32.474Z,934.19
2018-06-03T03:58:32.436Z,934.20
2018-06-03T03:59:32.384Z,934.13
2018-06-03T04:00:32.344Z,934.13
2018-06-03T04:01:32.295Z,934.14
2018-06-03T04:02:32.250Z,934.16
2018-06-03T04:03:32.229Z,934.14
2018-06-03T04:04:32.173Z,934.16
2018-06-03T04:05:32.115Z,934.20
2018-06-03T04:06:32.062Z,934.20
2018-06-03T04:07:32.054Z,934.25
2018-06-03T04:08:31.990Z,934.25
2018-06-03T04:09:31.942Z,934.26
2018-06-03T04:10:31.917Z,934.26
2018-06-03T04:11:31.859Z,934.21
2018-06-03T04:12:31.798Z,934.26
2018-06-03T04:13:31.780Z,934.28
2018-06-03T04:14:31.722Z,934.27
2018-06-03T04:15:31.664Z,934.26
2018-06-03T04:16:31.633Z,934.24
2018-06-03T04:17:31.604Z,934.29
2018-06-03T04:18:31.535Z,934.25
2018-06-03T04:19:31.480Z,934.29
2018-06-03T04:20:31.447Z,934.34
2018-06-03T04:21:31.402Z,934.42
2018-06-03T04:22:31.348Z,934.41
2018-06-03T04:23:31.317Z,934.47
2018-06-03T04:24:31.274Z,934.46
2018-06-03T04:25:31.210Z,934.48
2018-06-03T04:26:31.184Z,934.48
2018-06-03T04:27:31.140Z,934.41
2018-06-03T04:28:31.089Z,934.42
2018-06-03T04:29:31.044Z,934.40
2018-06-03T04:30:30.992Z,934.43
2018-06-03T04:31:30.937Z,934.40
2018-06-03T04:32:30.905Z,934.42
2018-06-03T04:33:30.853Z,934.39
2018-06-03T04:34:30.837Z,934.38
2018-06-03T04:35:30.765Z,934.41
2018-06-03T04:36:30.730Z,934.44
2018-06-03T04:37:30.687Z,934.47
2018-06-03T04:38:30.661Z,934.53
2018-06-03T04:39:30.583Z,934.51
2018-06-03T04:40:30.534Z,934.53
2018-06-03T04:41:30.497Z,934.51
2018-06-03T04:42:30.453Z,934.47
2018-06-03T04:43:30.400Z,934.42
2018-06-03T04:44:30.374Z,934.41
2018-06-03T04:45:30.324Z,934.38
2018-06-03T04:46:30.279Z,934.40
2018-06-03T04:47:30.220Z,934.45
2018-06-03T04:48:30.192Z,934.50
2018-06-03T04:49:30.148Z,934.51
2018-06-03T04:50:30.124Z,934.56
2018-06-03T04:51:30.071Z,934.59
2018-06-03T04:52:30.033Z,934.58
2018-06-03T04:53:29.969Z,934.53
2018-06-03T04:54:29.911Z,934.54
2018-06-03T04:55:29.852Z,934.53
2018-06-03T04:56:29.813Z,934.50
2018-06-03T04:57:29.764Z,934.47
2018-06-03T04:58:29.716Z,934.43
2018-06-03T04:59:29.691Z,934.37
2018-06-03T05:00:29.655Z,934.39
2018-06-03T05:01:29.597Z,934.37
2018-06-03T05:02:29.535Z,934.39
2018-06-03T05:03:29.505Z,934.38
2018-06-03T05:04:29.444Z,934.41
2018-06-03T05:05:29.407Z,934.36
2018-06-03T05:06:29.360Z,934.37
2018-06-03T05:07:29.321Z,934.39
2018-06-03T05:08:29.279Z,934.37
2018-06-03T05:09:29.240Z,934.34
2018-06-03T05:10:29.188Z,934.34
2018-06-03T05:11:29.128Z,934.30
2018-06-03T05:12:29.103Z,934.36
2018-06-03T05:13:29.084Z,934.33
2018-06-03T05:14:29.007Z,934.33
2018-06-03T05:15:28.992Z,934.33
2018-06-03T05:16:28.911Z,934.30
2018-06-03T05:17:28.897Z,934.28
2018-06-03T05:18:28.821Z,934.26
2018-06-03T05:19:28.781Z,934.28
2018-06-03T05:20:28.748Z,934.29
2018-06-03T05:21:28.691Z,934.25
2018-06-03T05:22:28.657Z,934.23
2018-06-03T05:23:28.620Z,934.27
2018-06-03T05:24:28.551Z,934.26
2018-06-03T05:25:28.521Z,934.26
2018-06-03T05:26:28.490Z,934.27
2018-06-03T05:27:28.411Z,934.26
2018-06-03T05:28:28.379Z,934.22
2018-06-03T05:29:28.314Z,934.25
2018-06-03T05:30:28.303Z,934.25
2018-06-03T05:31:28.249Z,934.25
2018-06-03T05:32:28.204Z,934.28
2018-06-03T05:33:28.161Z,934.24
2018-06-03T05:34:28.096Z,934.24
2018-06-03T05:35:28.056Z,934.28
2018-06-03T05:36:28.023Z,934.25
2018-06-03T05:37:27.966Z,934.29
2018-06-03T05:38:27.935Z,934.27
2018-06-03T05:39:27.875Z,934.29
2018-06-03T05:40:27.832Z,934.31
2018-06-03T05:41:27.811Z,934.36
2018-06-03T05:42:27.814Z,934.39
2018-06-03T05:43:27.719Z,934.42
2018-06-03T05:44:27.644Z,934.43
2018-06-03T05:45:27.622Z,934.50
2018-06-03T05:46:27.564Z,934.50
2018-06-03T05:47:27.506Z,934.46
2018-06-03T05:48:27.497Z,934.45
2018-06-03T05:49:27.435Z,934.42
2018-06-03T05:50:27.389Z,934.41
2018-06-03T05:51:27.325Z,934.38
2018-06-03T05:52:27.284Z,934.40
2018-06-03T05:53:27.292Z,934.42
2018-06-03T05:54:27.223Z,934.38
2018-06-03T05:55:27.155Z,934.37
2018-06-03T05:56:27.105Z,934.34
2018-06-03T05:57:27.084Z,934.33
2018-06-03T05:58:27.028Z,934.29
2018-06-03T05:59:26.958Z,934.30
2018-06-03T06:00:26.917Z,934.29
2018-06-03T06:01:26.883Z,934.30
2018-06-03T06:02:26.833Z,934.29
2018-06-03T06:03:26.816Z,934.34
2018-06-03T06:04:26.747Z,934.38
2018-06-03T06:05:26.723Z,934.38
2018-06-03T06:06:26.683Z,934.43
2018-06-03T06:07:26.628Z,934.40
2018-06-03T06:08:26.579Z,934.40
2018-06-03T06:09:26.549Z,934.42
2018-06-03T06:10:26.455Z,934.39
2018-06-03T06:11:26.440Z,934.47
2018-06-03T06:12:26.403Z,934.45
2018-06-03T06:13:26.326Z,934.46
2018-06-03T06:14:26.302Z,934.47
2018-06-03T06:15:26.241Z,934.41
2018-06-03T06:16:26.190Z,934.44
2018-06-03T06:17:26.170Z,934.38
2018-06-03T06:18:26.114Z,934.42
2018-06-03T06:19:26.082Z,934.42
2018-06-03T06:20:26.034Z,934.42
2018-06-03T06:21:26.002Z,934.41
2018-06-03T06:22:25.931Z,934.40
2018-06-03T06:23:25.906Z,934.35
2018-06-03T06:24:25.831Z,934.36
2018-06-03T06:25:25.796Z,934.38
2018-06-03T06:26:25.752Z,934.41
2018-06-03T06:27:25.737Z,934.43
2018-06-03T06:28:25.669Z,934.44
2018-06-03T06:29:25.667Z,934.39
2018-06-03T06:30:25.585Z,934.40
2018-06-03T06:31:25.522Z,934.35
2018-06-03T06:32:25.480Z,934.35
2018-06-03T06:33:25.461Z,934.32
2018-06-03T06:34:25.378Z,934.29
2018-06-03T06:35:25.353Z,934.34
2018-06-03T06:36:25.322Z,934.33
2018-06-03T06:37:25.256Z,934.36
2018-06-03T06:38:25.230Z,934.39
2018-06-03T06:39:25.200Z,934.40
2018-06-03T06:40:25.128Z,934.38
2018-06-03T06:41:25.079Z,934.42
2018-06-03T06:42:25.028Z,934.36
2018-06-03T06:43:24.993Z,934.42
2018-06-03T06:44:24.932Z,934.41
2018-06-03T06:45:24.906Z,934.42
2018-06-03T06:46:24.845Z,934.39
2018-06-03T06:47:24.802Z,934.38
2018-06-03T06:48:24.770Z,934.42
2018-06-03T06:49:24.728Z,934.41
2018-06-03T06:50:24.655Z,934.45
2018-06-03T06:51:24.629Z,934.42
2018-06-03T06:52:24.572Z,934.40
2018-06-03T06:53:24.521Z,934.38
2018-06-03T06:54:24.496Z,934.44
2018-06-03T06:55:24.452Z,934.42
2018-06-03T06:56:24.392Z,934.41
2018-06-03T06:57:24.460Z,934.45
2018-06-03T06:58:24.335Z,934.46
2018-06-03T06:59:24.277Z,934.47
2018-06-03T07:00:24.222Z,934.48
2018-06-03T07:01:24.161Z,934.48
2018-06-03T07:02:24.164Z,934.49
2018-06-03T07:03:24.090Z,934.50
2018-06-03T07:04:24.068Z,934.46
2018-06-03T07:05:24.024Z,934.45
2018-06-03T07:06:23.962Z,934.43
2018-06-03T07:07:23.889Z,934.51
2018-06-03T07:08:23.883Z,934.55
2018-06-03T07:09:23.805Z,934.61
2018-06-03T07:10:23.753Z,934.65
2018-06-03T07:11:23.712Z,934.66
2018-06-03T07:12:23.677Z,934.67
2018-06-03T07:13:23.632Z,934.64
2018-06-03T07:14:23.575Z,934.65
2018-06-03T07:15:23.545Z,934.67
2018-06-03T07:16:23.508Z,934.63
2018-06-03T07:17:23.461Z,934.56
2018-06-03T07:18:23.423Z,934.61
2018-06-03T07:19:23.375Z,934.56
2018-06-03T07:20:23.331Z,934.56
2018-06-03T07:21:23.272Z,934.63
2018-06-03T07:22:23.249Z,934.62
2018-06-03T07:23:23.257Z,934.62
2018-06-03T07:24:23.173Z,934.57
2018-06-03T07:25:23.074Z,934.56
2018-06-03T07:26:23.053Z,934.51
2018-06-03T07:27:23.001Z,934.52
2018-06-03T07:28:22.958Z,934.51
2018-06-03T07:29:22.932Z,934.56
2018-06-03T07:30:22.860Z,934.55
2018-06-03T07:31:22.820Z,934.55
2018-06-03T07:32:22.790Z,934.56
2018-06-03T07:33:22.731Z,934.58
2018-06-03T07:34:22.696Z,934.55
2018-06-03T07:35:22.636Z,934.60
2018-06-03T07:36:22.632Z,934.61
2018-06-03T07:37:22.543Z,934.64
2018-06-03T07:38:23.041Z,934.68
2018-06-03T07:39:22.457Z,934.71
2018-06-03T07:40:22.404Z,934.67
2018-06-03T07:41:22.406Z,934.67
2018-06-03T07:42:22.324Z,934.69
2018-06-03T07:43:22.283Z,934.64
2018-06-03T07:44:22.250Z,934.66
2018-06-03T07:45:22.187Z,934.69
2018-06-03T07:46:22.129Z,934.71
2018-06-03T07:47:22.089Z,934.68
2018-06-03T07:48:22.051Z,934.71
2018-06-03T07:49:22.001Z,934.72
2018-06-03T07:50:21.966Z,934.72
2018-06-03T07:51:21.912Z,934.71
2018-06-03T07:52:21.858Z,934.74
2018-06-03T07:53:21.812Z,934.74
2018-06-03T07:54:21.777Z,934.74
2018-06-03T07:55:21.766Z,934.73
2018-06-03T07:56:21.675Z,934.79
2018-06-03T07:57:21.658Z,934.79
2018-06-03T07:58:21.597Z,934.82
2018-06-03T07:59:21.562Z,934.83
2018-06-03T08:00:21.513Z,934.78
2018-06-03T08:01:21.460Z,934.74
2018-06-03T08:02:21.453Z,934.82
2018-06-03T08:03:21.369Z,934.80
2018-06-03T08:04:21.328Z,934.85
2018-06-03T08:05:21.270Z,934.81
2018-06-03T08:06:21.231Z,934.83
2018-06-03T08:07:21.746Z,934.85
2018-06-03T08:08:21.155Z,934.94
2018-06-03T08:09:21.122Z,934.99
2018-06-03T08:10:21.047Z,935.00
2018-06-03T08:11:21.013Z,934.99
2018-06-03T08:12:20.979Z,934.98
2018-06-03T08:13:20.900Z,935.05
2018-06-03T08:14:20.866Z,935.06
2018-06-03T08:15:20.833Z,935.07
2018-06-03T08:16:20.802Z,935.15
2018-06-03T08:17:20.732Z,935.19
2018-06-03T08:18:20.703Z,935.20
2018-06-03T08:19:20.643Z,935.20
2018-06-03T08:20:20.624Z,935.15
2018-06-03T08:21:20.543Z,935.16
2018-06-03T08:22:20.517Z,935.20
2018-06-03T08:23:20.454Z,935.15
2018-06-03T08:24:20.441Z,935.12
2018-06-03T08:25:20.355Z,935.08
2018-06-03T08:26:20.362Z,935.10
2018-06-03T08:27:20.292Z,935.11
2018-06-03T08:28:20.246Z,935.13
2018-06-03T08:29:20.181Z,935.21
2018-06-03T08:30:20.167Z,935.21
2018-06-03T08:31:20.083Z,935.24
2018-06-03T08:32:20.062Z,935.26
2018-06-03T08:33:20.041Z,935.34
2018-06-03T08:34:19.966Z,935.33
2018-06-03T08:35:19.949Z,935.35
2018-06-03T08:36:19.873Z,935.36
2018-06-03T08:37:19.846Z,935.34
2018-06-03T08:38:19.787Z,935.33
2018-06-03T08:39:19.751Z,935.29
2018-06-03T08:40:19.680Z,935.31
2018-06-03T08:41:19.625Z,935.28
2018-06-03T08:42:19.606Z,935.22
2018-06-03T08:43:20.106Z,935.19
2018-06-03T08:44:19.510Z,935.18
2018-06-03T08:45:19.442Z,935.17
2018-06-03T08:46:19.416Z,935.18
2018-06-03T08:47:19.349Z,935.25
2018-06-03T08:48:19.318Z,935.24
2018-06-03T08:49:19.292Z,935.13
2018-06-03T08:50:19.241Z,935.23
2018-06-03T08:51:19.189Z,935.26
2018-06-03T08:52:19.169Z,935.31
2018-06-03T08:53:19.122Z,935.36
2018-06-03T08:54:19.037Z,935.30
2018-06-03T08:55:19.009Z,935.28
2018-06-03T08:56:18.938Z,935.27
2018-06-03T08:57:18.920Z,935.25
2018-06-03T08:58:18.876Z,935.24
2018-06-03T08:59:18.813Z,935.38
2018-06-03T09:00:18.780Z,935.25
2018-06-03T09:01:18.722Z,935.29
2018-06-03T09:02:18.705Z,935.31
2018-06-03T09:03:18.631Z,935.41
2018-06-03T09:04:18.578Z,935.38
2018-06-03T09:05:18.553Z,935.39
2018-06-03T09:06:18.507Z,935.45
2018-06-03T09:07:18.491Z,935.47
2018-06-03T09:08:18.385Z,935.49
2018-06-03T09:09:18.354Z,935.50
2018-06-03T09:10:18.309Z,935.53
2018-06-03T09:11:18.259Z,935.55
2018-06-03T09:12:18.205Z,935.61
2018-06-03T09:13:18.197Z,935.61
2018-06-03T09:14:18.124Z,935.64
2018-06-03T09:15:18.089Z,935.68
2018-06-03T09:16:18.050Z,935.67
2018-06-03T09:17:18.005Z,935.65
2018-06-03T09:18:17.972Z,935.66
2018-06-03T09:19:17.910Z,935.67
2018-06-03T09:20:17.857Z,935.71
2018-06-03T09:21:17.809Z,935.75
2018-06-03T09:22:17.744Z,935.74
2018-06-03T09:23:17.726Z,935.80
2018-06-03T09:24:17.647Z,935.82
2018-06-03T09:25:17.613Z,935.90
2018-06-03T09:26:17.555Z,935.89
2018-06-03T09:27:17.516Z,935.88
2018-06-03T09:28:17.514Z,935.93
2018-06-03T09:29:17.462Z,935.95
2018-06-03T09:30:17.398Z,935.98
2018-06-03T09:31:17.355Z,936.02
2018-06-03T09:32:17.314Z,936.07
2018-06-03T09:33:17.280Z,936.06
2018-06-03T09:34:17.206Z,936.07
2018-06-03T09:35:17.187Z,936.13
2018-06-03T09:36:17.113Z,936.13
2018-06-03T09:37:17.088Z,936.18
2018-06-03T09:38:17.005Z,936.22
2018-06-03T09:39:16.986Z,936.19
2018-06-03T09:40:16.938Z,936.22
2018-06-03T09:41:16.917Z,936.20
2018-06-03T09:42:16.848Z,936.18
2018-06-03T09:43:16.799Z,936.17
2018-06-03T09:44:16.775Z,936.20
2018-06-03T09:45:16.703Z,936.20
2018-06-03T09:46:16.663Z,936.21
2018-06-03T09:47:16.604Z,936.18
2018-06-03T09:48:16.572Z,936.17
2018-06-03T09:49:16.533Z,936.26
2018-06-03T09:50:16.460Z,936.23
2018-06-03T09:51:16.418Z,936.26
2018-06-03T09:52:16.394Z,936.27
2018-06-03T09:53:16.367Z,936.29
2018-06-03T09:54:16.312Z,936.32
2018-06-03T09:55:16.254Z,936.38
2018-06-03T09:56:16.203Z,936.38
2018-06-03T09:57:16.163Z,936.47
2018-06-03T09:58:16.113Z,936.46
2018-06-03T09:59:16.072Z,936.51
2018-06-03T10:00:16.062Z,936.46
2018-06-03T10:01:15.996Z,936.53
2018-06-03T10:02:15.920Z,936.53
2018-06-03T10:03:15.881Z,936.54
2018-06-03T10:04:15.829Z,936.57
2018-06-03T10:05:15.790Z,936.56
2018-06-03T10:06:15.739Z,936.54
2018-06-03T10:07:15.716Z,936.57
2018-06-03T10:08:15.631Z,936.61
2018-06-03T10:09:15.588Z,936.61
2018-06-03T10:10:15.604Z,936.65
2018-06-03T10:11:15.515Z,936.67
2018-06-03T10:12:15.473Z,936.65
2018-06-03T10:13:15.429Z,936.63
2018-06-03T10:14:15.368Z,936.69
2018-06-03T10:15:15.311Z,936.70
2018-06-03T10:16:15.400Z,936.70
2018-06-03T10:17:15.218Z,936.74
2018-06-03T10:18:15.171Z,936.69
2018-06-03T10:19:15.145Z,936.79
2018-06-03T10:20:15.090Z,936.74
2018-06-03T10:21:15.045Z,936.76
2018-06-03T10:22:15.015Z,936.77
2018-06-03T10:23:15.031Z,936.80
2018-06-03T10:24:14.945Z,936.80
2018-06-03T10:25:14.876Z,936.79
2018-06-03T10:26:14.815Z,936.82
2018-06-03T10:27:14.791Z,936.83
2018-06-03T10:28:14.740Z,936.88
2018-06-03T10:29:14.676Z,936.87
2018-06-03T10:30:14.659Z,936.93
2018-06-03T10:31:14.616Z,936.95
2018-06-03T10:32:14.550Z,936.96
2018-06-03T10:33:14.505Z,937.01
2018-06-03T10:34:14.435Z,937.02
2018-06-03T10:35:14.407Z,937.04
2018-06-03T10:36:14.348Z,937.09
2018-06-03T10:37:14.320Z,937.11
2018-06-03T10:38:14.261Z,937.08
2018-06-03T10:39:14.233Z,937.08
2018-06-03T10:40:14.172Z,937.10
2018-06-03T10:41:14.110Z,937.14
2018-06-03T10:42:14.085Z,937.11
2018-06-03T10:43:14.030Z,937.19
2018-06-03T10:44:13.997Z,937.17
2018-06-03T10:45:13.948Z,937.29
2018-06-03T10:46:13.906Z,937.31
2018-06-03T10:47:13.834Z,937.31
2018-06-03T10:48:13.804Z,937.29
2018-06-03T10:49:13.767Z,937.31
2018-06-03T10:50:13.710Z,937.31
2018-06-03T10:51:13.671Z,937.36
2018-06-03T10:52:13.623Z,937.29
2018-06-03T10:53:13.580Z,937.30
2018-06-03T10:54:13.565Z,937.32
2018-06-03T10:55:13.490Z,937.28
2018-06-03T10:56:13.445Z,937.30
2018-06-03T10:57:13.378Z,937.28
2018-06-03T10:58:13.352Z,937.29
2018-06-03T10:59:13.307Z,937.29
2018-06-03T11:00:13.258Z,937.36
2018-06-03T11:01:13.208Z,937.39
2018-06-03T11:02:13.194Z,937.38
2018-06-03T11:03:13.113Z,937.43
2018-06-03T11:04:13.064Z,937.46
2018-06-03T11:05:13.012Z,937.38
2018-06-03T11:06:13.006Z,937.47
2018-06-03T11:07:12.925Z,937.44
2018-06-03T11:08:12.893Z,937.50
2018-06-03T11:09:12.838Z,937.54
2018-06-03T11:10:12.774Z,937.53
2018-06-03T11:11:12.763Z,937.58
2018-06-03T11:12:12.695Z,937.60
2018-06-03T11:13:12.661Z,937.57
2018-06-03T11:14:12.617Z,937.56
2018-06-03T11:15:12.594Z,937.53
2018-06-03T11:16:12.537Z,937.61
2018-06-03T11:17:12.457Z,937.61
2018-06-03T11:18:12.404Z,937.58
2018-06-03T11:19:12.364Z,937.59
2018-06-03T11:20:12.318Z,937.58
2018-06-03T11:21:12.306Z,937.58
2018-06-03T11:22:12.247Z,937.58
2018-06-03T11:23:12.216Z,937.56
2018-06-03T11:24:12.155Z,937.62
2018-06-03T11:25:12.083Z,937.63
2018-06-03T11:26:12.042Z,937.63
2018-06-03T11:27:11.986Z,937.63
2018-06-03T11:28:11.983Z,937.63
2018-06-03T11:29:11.934Z,937.61
2018-06-03T11:30:11.891Z,937.66
2018-06-03T11:31:11.812Z,937.69
2018-06-03T11:32:11.760Z,937.70
2018-06-03T11:33:11.738Z,937.71
2018-06-03T11:34:11.693Z,937.68
2018-06-03T11:35:11.636Z,937.69
2018-06-03T11:36:12.161Z,937.67
2018-06-03T11:37:11.556Z,937.70
2018-06-03T11:38:11.532Z,937.78
2018-06-03T11:39:11.453Z,937.81
2018-06-03T11:40:11.414Z,937.82
2018-06-03T11:41:11.370Z,937.81
2018-06-03T11:42:11.297Z,937.88
2018-06-03T11:43:11.277Z,937.87
2018-06-03T11:44:11.230Z,937.87
2018-06-03T11:45:11.192Z,937.85
2018-06-03T11:46:11.146Z,937.85
2018-06-03T11:47:11.076Z,937.84
2018-06-03T11:48:11.021Z,937.82
2018-06-03T11:49:11.013Z,937.87
2018-06-03T11:50:10.952Z,937.83
2018-06-03T11:51:10.882Z,937.80
2018-06-03T11:52:10.863Z,937.82
2018-06-03T11:53:10.832Z,937.78
2018-06-03T11:54:10.750Z,937.79
2018-06-03T11:55:10.752Z,937.85
2018-06-03T11:56:10.687Z,937.86
2018-06-03T11:57:10.628Z,937.83
2018-06-03T11:58:10.557Z,937.85
2018-06-03T11:59:10.606Z,937.90
2018-06-03T12:00:10.479Z,937.86
2018-06-03T12:01:10.433Z,937.88
2018-06-03T12:02:10.399Z,937.92
2018-06-03T12:03:10.354Z,937.96
2018-06-03T12:04:10.285Z,938.00
2018-06-03T12:05:10.234Z,938.07
2018-06-03T12:06:10.205Z,938.08
2018-06-03T12:07:10.170Z,938.07
2018-06-03T12:08:10.159Z,938.12
2018-06-03T12:09:10.048Z,938.12
2018-06-03T12:10:10.027Z,938.14
2018-06-03T12:11:09.964Z,938.20
2018-06-03T12:12:09.908Z,938.21
2018-06-03T12:13:09.887Z,938.16
2018-06-03T12:14:09.870Z,938.20
2018-06-03T12:15:09.822Z,938.19
2018-06-03T12:16:09.733Z,938.22
2018-06-03T12:17:09.722Z,938.24
2018-06-03T12:18:09.633Z,938.26
2018-06-03T12:19:09.644Z,938.28
2018-06-03T12:20:09.581Z,938.30
2018-06-03T12:21:09.535Z,938.24
2018-06-03T12:22:09.494Z,938.30
2018-06-03T12:23:09.461Z,938.27
2018-06-03T12:24:09.380Z,938.32
2018-06-03T12:25:09.331Z,938.31
2018-06-03T12:26:09.281Z,938.34
2018-06-03T12:27:09.219Z,938.28
2018-06-03T12:28:09.171Z,938.30